Aeroporto :
LOGIN :

Iscrizione | Disclaimer

   EN    FR    IT 

 










Sommario :    VFR   VFR Marginale   IFR   IFR Intensivo   IFR Molto Intensivo
Visibilità : 
Base nubi : 
>= 8 km
>= 3000ft
5 / 8 km
1000 / 3000 ft
1500m / 5 km
500 / 1000 ft
800 / 1500m
200 / 500 ft
< 800m
< 200 ft
Simboli :   Temporali  Nebbia  Neve Forte  Precipitazioni Forti  Vento > 20 kt
SIGMETs :   Varie  Temporali  Ghiacco  Turbolenza  Onda orograficha  Ceneri Vulcaniche






- Altitudine del aeroporto : 1071 ft
- Codice IATA : LWO


UKLL - L'viv

ULTIMO METAR :
  • 190430Z 20002MPS 9999 BKN041 M01/M02 Q1020 R13/720142 NOSIG

METARs OBSOLETI :
  • 190400Z 17002MPS 140V200 9999 BKN041 00/M01 Q1021 R13/720142 NOSIG
  • 190330Z 16002MPS CAVOK 00/M01 Q1021 R13/710142 NOSIG
  • 190300Z 16001MPS CAVOK M01/M02 Q1021 R31/710142 NOSIG
  • 190230Z VRB01MPS CAVOK M00/M01 Q1021 R31/290055 NOSIG
  • 190200Z 14002MPS CAVOK M01/M02 Q1021 R31/290055 NOSIG
  • 190130Z VRB01MPS CAVOK 00/M01 Q1021 R31/290055 NOSIG

TAF TAF UKLL
Valido dal 19 a 00 ore il 20 a 00 ore UTC


182306Z 1900/1924 VRB01MPS 3000 BR BKN007 SCT025CB TX08/1912Z TN00/1904Z
TEMPO 1900/1906 25003MPS 1100 BR SCT004
BECMG 1906/1908 23005G10MPS 9999 NSW BKN020 SCT030CB
TEMPO 1918/1924 2100 -SHRA BR SCT004 BKN007 BKN017CB



MetMap, La meteo Aeronautica in un colpo d'occhio ! - Copyright ORBIFLY Dicembre 2007 - Disclaimer

ORBIFLY MET'MAP TEAM :

Programmazione e sviluppo : Alexandra Zaïnal
Concezione : Baudouin d'Aumeries
Aiuto per la programmazione : Marc-Olivier Méhu
Supporto tecnico e logistico : Manuel Goepfert
Aiuto per la traduzione : Arnaldo La Scala

Contatto : metmap@orbifly.com




FONTI E CREDITI :

   NOAA